createdAt,value
2023-04-20T00:00:02.376Z,19.80
2023-04-20T00:03:02.130Z,19.90
2023-04-20T00:05:32.439Z,19.90
2023-04-20T00:08:01.452Z,19.90
2023-04-20T00:10:29.940Z,19.90
2023-04-20T00:12:59.167Z,19.90
2023-04-20T00:15:27.623Z,19.90
2023-04-20T00:17:56.662Z,19.90
2023-04-20T00:20:25.409Z,19.90
2023-04-20T00:22:54.263Z,19.80
2023-04-20T00:25:22.725Z,19.80
2023-04-20T00:27:51.608Z,19.90
2023-04-20T00:30:20.259Z,19.80
2023-04-20T00:32:49.147Z,19.80
2023-04-20T00:35:17.732Z,19.80
2023-04-20T00:37:46.602Z,19.80
2023-04-20T00:40:15.183Z,19.80
2023-04-20T00:42:44.050Z,19.80
2023-04-20T00:45:12.545Z,19.80
2023-04-20T00:47:41.631Z,19.80
2023-04-20T00:50:11.677Z,19.80
2023-04-20T00:52:41.309Z,19.90
2023-04-20T00:55:10.236Z,19.80
2023-04-20T00:57:40.499Z,19.80
2023-04-20T01:00:11.142Z,19.90
2023-04-20T01:02:40.156Z,19.80
2023-04-20T01:05:10.601Z,19.80
2023-04-20T01:07:39.521Z,19.80
2023-04-20T01:10:09.068Z,19.80
2023-04-20T01:12:41.411Z,19.80
2023-04-20T01:15:12.193Z,19.80
2023-04-20T01:17:42.322Z,19.80
2023-04-20T01:20:17.854Z,19.80
2023-04-20T01:22:51.536Z,19.80
2023-04-20T01:25:20.574Z,19.80
2023-04-20T01:27:49.449Z,19.80
2023-04-20T01:30:18.182Z,19.80
2023-04-20T01:32:47.395Z,19.80
2023-04-20T01:35:17.447Z,19.80
2023-04-20T01:37:47.481Z,19.80
2023-04-20T01:40:16.309Z,19.80
2023-04-20T01:42:45.242Z,19.80
2023-04-20T01:45:13.773Z,19.80
2023-04-20T01:47:42.737Z,19.80
2023-04-20T01:50:11.540Z,19.80
2023-04-20T01:52:40.408Z,19.80
2023-04-20T01:55:10.271Z,19.80
2023-04-20T01:57:39.330Z,19.80
2023-04-20T02:00:10.271Z,19.80
2023-04-20T02:02:46.530Z,19.80
2023-04-20T02:05:15.475Z,19.80
2023-04-20T02:07:44.392Z,19.80
2023-04-20T02:10:12.909Z,19.80
2023-04-20T02:12:48.171Z,19.80
2023-04-20T02:15:16.704Z,19.80
2023-04-20T02:17:45.616Z,19.80
2023-04-20T02:20:14.756Z,19.80
2023-04-20T02:22:43.738Z,19.80
2023-04-20T02:25:12.839Z,19.80
2023-04-20T02:27:41.790Z,19.80
2023-04-20T02:30:10.877Z,19.80
2023-04-20T02:32:40.074Z,19.80
2023-04-20T02:35:09.698Z,19.80
2023-04-20T02:37:38.533Z,19.80
2023-04-20T02:40:08.767Z,19.80
2023-04-20T02:42:37.711Z,19.80
2023-04-20T02:45:10.260Z,19.80
2023-04-20T02:47:39.777Z,19.80
2023-04-20T02:50:09.825Z,19.80
2023-04-20T02:52:56.791Z,19.80
2023-04-20T02:55:25.401Z,19.80
2023-04-20T02:57:56.799Z,19.80
2023-04-20T03:00:39.046Z,19.80
2023-04-20T03:03:11.436Z,19.80
2023-04-20T03:05:41.648Z,19.80
2023-04-20T03:08:10.847Z,19.80
2023-04-20T03:10:39.714Z,19.80
2023-04-20T03:13:18.055Z,19.80
2023-04-20T03:15:54.247Z,19.80
2023-04-20T03:18:43.705Z,19.80
2023-04-20T03:21:12.943Z,19.80
2023-04-20T03:23:41.908Z,19.70
2023-04-20T03:26:10.580Z,19.70
2023-04-20T03:28:57.190Z,19.80
2023-04-20T03:31:28.053Z,19.70
2023-04-20T03:33:59.157Z,19.80
2023-04-20T03:36:28.699Z,19.70
2023-04-20T03:38:58.687Z,19.80
2023-04-20T03:41:27.228Z,19.70
2023-04-20T03:43:57.560Z,19.70
2023-04-20T03:46:26.276Z,19.70
2023-04-20T03:48:55.159Z,19.70
2023-04-20T03:51:23.808Z,19.70
2023-04-20T03:53:52.882Z,19.70
2023-04-20T03:56:21.562Z,19.70
2023-04-20T03:58:51.429Z,19.70
2023-04-20T04:01:24.244Z,19.70
2023-04-20T04:03:53.138Z,19.70
2023-04-20T04:06:22.034Z,19.70
2023-04-20T04:08:50.969Z,19.70
2023-04-20T04:11:20.208Z,19.70
2023-04-20T04:13:49.868Z,19.70
2023-04-20T04:16:18.842Z,19.70
2023-04-20T04:18:48.102Z,19.70
2023-04-20T04:21:16.552Z,19.70
2023-04-20T04:23:52.324Z,19.70
2023-04-20T04:26:35.705Z,19.70
2023-04-20T04:29:07.377Z,19.70
2023-04-20T04:31:36.247Z,19.70
2023-04-20T04:34:12.462Z,19.70
2023-04-20T04:36:46.248Z,19.70
2023-04-20T04:39:18.938Z,19.70
2023-04-20T04:41:58.038Z,19.70
2023-04-20T04:44:34.638Z,19.70
2023-04-20T04:47:05.735Z,19.70
2023-04-20T04:49:36.292Z,19.70
2023-04-20T04:52:04.927Z,19.70
2023-04-20T04:54:33.769Z,19.70
2023-04-20T04:57:02.838Z,19.70
2023-04-20T04:59:31.821Z,19.70
2023-04-20T05:02:00.332Z,19.70
2023-04-20T05:04:29.500Z,19.70
2023-04-20T05:06:58.267Z,19.70
2023-04-20T05:09:33.735Z,19.70
2023-04-20T05:12:02.908Z,19.70
2023-04-20T05:14:32.407Z,19.70
2023-04-20T05:17:01.316Z,19.70
2023-04-20T05:19:30.160Z,19.70
2023-04-20T05:21:58.731Z,19.70
2023-04-20T05:24:27.459Z,19.70
2023-04-20T05:26:56.576Z,19.70
2023-04-20T05:29:25.135Z,19.70
2023-04-20T05:31:53.911Z,19.70
2023-04-20T05:34:22.426Z,19.70
2023-04-20T05:36:52.310Z,19.70
2023-04-20T05:39:21.236Z,19.70
2023-04-20T05:41:50.100Z,19.70
2023-04-20T05:44:18.659Z,19.70
2023-04-20T05:46:47.625Z,19.70
2023-04-20T05:49:16.281Z,19.70
2023-04-20T05:51:45.168Z,19.70
2023-04-20T05:54:13.656Z,19.70
2023-04-20T05:56:42.444Z,19.70
2023-04-20T05:59:11.028Z,19.70
2023-04-20T06:01:39.838Z,19.70
2023-04-20T06:04:09.204Z,19.70
2023-04-20T06:06:38.627Z,19.70
2023-04-20T06:09:07.231Z,19.70
2023-04-20T06:11:36.455Z,19.70
2023-04-20T06:14:04.940Z,19.70
2023-04-20T06:16:33.869Z,19.70
2023-04-20T06:19:02.559Z,19.70
2023-04-20T06:21:33.312Z,19.70
2023-04-20T06:24:01.903Z,19.70
2023-04-20T06:26:30.980Z,19.70
2023-04-20T06:28:59.402Z,19.70
2023-04-20T06:31:28.340Z,19.70
2023-04-20T06:33:56.799Z,19.70
2023-04-20T06:36:26.056Z,19.70
2023-04-20T06:38:55.318Z,19.70
2023-04-20T06:41:24.318Z,19.70
2023-04-20T06:43:52.761Z,19.70
2023-04-20T06:46:21.692Z,19.70
2023-04-20T06:48:50.221Z,19.70
2023-04-20T06:51:18.987Z,19.70
2023-04-20T06:53:47.566Z,19.70
2023-04-20T06:56:16.399Z,19.70
2023-04-20T06:58:45.082Z,19.60
2023-04-20T07:01:13.946Z,19.70
2023-04-20T07:03:44.141Z,19.60
2023-04-20T07:06:13.249Z,19.60
2023-04-20T07:08:41.780Z,19.70
2023-04-20T07:11:10.707Z,19.70
2023-04-20T07:13:39.216Z,19.70
2023-04-20T07:16:08.820Z,19.70
2023-04-20T07:18:37.499Z,19.70
2023-04-20T07:21:06.401Z,19.70
2023-04-20T07:23:34.914Z,19.70
2023-04-20T07:26:03.672Z,19.70
2023-04-20T07:28:32.699Z,19.70
2023-04-20T07:31:01.511Z,19.70
2023-04-20T07:33:35.984Z,19.70
2023-04-20T07:36:07.233Z,19.70
2023-04-20T07:38:35.713Z,19.70
2023-04-20T07:41:04.491Z,19.70
2023-04-20T07:43:32.998Z,19.70
2023-04-20T07:46:02.174Z,19.70
2023-04-20T07:48:30.775Z,19.70
2023-04-20T07:50:59.954Z,19.70
2023-04-20T07:53:31.515Z,19.60
2023-04-20T07:56:00.315Z,19.70
2023-04-20T07:58:28.779Z,19.70
2023-04-20T08:00:57.790Z,19.70
2023-04-20T08:03:27.794Z,19.70
2023-04-20T08:05:56.797Z,19.70
2023-04-20T08:08:25.282Z,19.70
2023-04-20T08:10:54.155Z,19.70
2023-04-20T08:13:22.681Z,19.70
2023-04-20T08:15:51.443Z,19.70
2023-04-20T08:18:21.298Z,19.80
2023-04-20T08:20:51.839Z,19.70
2023-04-20T08:23:20.622Z,19.80
2023-04-20T08:25:49.438Z,19.80
2023-04-20T08:28:29.457Z,19.80
2023-04-20T08:31:02.344Z,19.70
2023-04-20T08:33:31.290Z,19.80
2023-04-20T08:36:00.140Z,19.80
2023-04-20T08:38:33.896Z,19.80
2023-04-20T08:41:03.395Z,19.80
2023-04-20T08:43:32.559Z,19.80
2023-04-20T08:46:04.610Z,19.80
2023-04-20T08:48:37.848Z,19.80
2023-04-20T08:51:06.813Z,19.80
2023-04-20T08:53:35.215Z,19.80
2023-04-20T08:56:04.405Z,19.70
2023-04-20T08:58:34.350Z,19.70
2023-04-20T09:01:03.219Z,19.70
2023-04-20T09:03:43.249Z,19.70
2023-04-20T09:06:17.343Z,19.70
2023-04-20T09:08:46.679Z,19.70
2023-04-20T09:11:22.802Z,19.70
2023-04-20T09:14:10.296Z,19.60
2023-04-20T09:16:52.826Z,19.70
2023-04-20T09:19:28.934Z,19.70
2023-04-20T09:22:00.004Z,19.70
2023-04-20T09:24:36.170Z,19.70
2023-04-20T09:27:19.001Z,19.60
2023-04-20T09:30:04.520Z,19.70
2023-04-20T09:32:34.199Z,19.70
2023-04-20T09:35:02.642Z,19.70
2023-04-20T09:37:31.490Z,19.70
2023-04-20T09:40:01.293Z,19.70
2023-04-20T09:42:30.168Z,19.80
2023-04-20T09:44:58.756Z,19.80
2023-04-20T09:47:30.298Z,19.80
2023-04-20T09:50:02.333Z,19.80
2023-04-20T09:52:37.040Z,19.80
2023-04-20T09:55:09.421Z,19.80
2023-04-20T09:57:39.011Z,19.70
2023-04-20T10:00:10.976Z,19.70
2023-04-20T10:02:40.597Z,19.70
2023-04-20T10:05:09.493Z,19.70
2023-04-20T10:07:38.334Z,19.70
2023-04-20T10:10:16.943Z,19.70
2023-04-20T10:12:57.071Z,19.70
2023-04-20T10:15:36.599Z,19.60
2023-04-20T10:18:24.748Z,19.60
2023-04-20T10:21:05.890Z,19.60
2023-04-20T10:23:34.961Z,19.60
2023-04-20T10:26:04.107Z,19.60
2023-04-20T10:28:42.159Z,19.60
2023-04-20T10:31:15.565Z,19.60
2023-04-20T10:33:55.810Z,19.60
2023-04-20T10:36:38.474Z,19.60
2023-04-20T10:39:19.598Z,19.60
2023-04-20T10:42:01.478Z,19.50
2023-04-20T10:44:35.621Z,19.60
2023-04-20T10:47:04.219Z,19.50
2023-04-20T10:49:33.144Z,19.60
2023-04-20T10:52:01.625Z,19.60
2023-04-20T10:54:40.226Z,19.60
2023-04-20T10:57:09.202Z,19.60
2023-04-20T10:59:39.459Z,19.60
2023-04-20T11:02:08.648Z,19.60
2023-04-20T11:04:37.560Z,19.60
2023-04-20T11:07:10.648Z,19.60
2023-04-20T11:09:39.994Z,19.50
2023-04-20T11:12:12.277Z,19.60
2023-04-20T11:15:03.168Z,19.60
2023-04-20T11:17:38.239Z,19.60
2023-04-20T11:20:12.888Z,19.60
2023-04-20T11:22:42.311Z,19.50
2023-04-20T11:25:13.349Z,19.60
2023-04-20T11:27:44.232Z,19.60
2023-04-20T11:30:13.251Z,19.60
2023-04-20T11:32:42.060Z,19.50
2023-04-20T11:35:12.281Z,19.50
2023-04-20T11:37:51.717Z,19.40
2023-04-20T11:40:20.721Z,19.30
2023-04-20T11:42:49.172Z,19.30
2023-04-20T11:45:18.213Z,19.40
2023-04-20T11:47:47.484Z,19.40
2023-04-20T11:50:16.450Z,19.50
2023-04-20T11:52:45.036Z,19.50
2023-04-20T11:55:14.776Z,19.50
2023-04-20T11:57:43.572Z,19.50
2023-04-20T12:00:13.439Z,19.50
2023-04-20T12:02:44.483Z,19.60
2023-04-20T12:05:14.262Z,19.50
2023-04-20T12:07:44.005Z,19.60
2023-04-20T12:10:12.908Z,19.60
2023-04-20T12:12:42.293Z,19.60
2023-04-20T12:15:12.975Z,19.60
2023-04-20T12:17:41.441Z,19.60
2023-04-20T12:20:12.575Z,19.60
2023-04-20T12:22:41.399Z,19.60
2023-04-20T12:25:10.437Z,19.60
2023-04-20T12:27:38.959Z,19.60
2023-04-20T12:30:09.516Z,19.60
2023-04-20T12:32:37.965Z,19.60
2023-04-20T12:35:08.729Z,19.60
2023-04-20T12:37:37.161Z,19.60
2023-04-20T12:40:07.556Z,19.60
2023-04-20T12:42:36.184Z,19.60
2023-04-20T12:45:05.472Z,19.60
2023-04-20T12:47:33.981Z,19.70
2023-04-20T12:50:03.545Z,19.70
2023-04-20T12:52:32.032Z,19.70
2023-04-20T12:55:02.043Z,19.70
2023-04-20T12:57:30.439Z,19.70
2023-04-20T13:00:00.260Z,19.70
2023-04-20T13:02:29.115Z,19.70
2023-04-20T13:04:58.191Z,19.70
2023-04-20T13:07:28.261Z,19.70
2023-04-20T13:09:57.179Z,19.70
2023-04-20T13:12:25.641Z,19.80
2023-04-20T13:14:54.492Z,19.80
2023-04-20T13:17:23.026Z,19.80
2023-04-20T13:19:55.162Z,19.80
2023-04-20T13:22:23.721Z,19.80
2023-04-20T13:24:52.515Z,19.80
2023-04-20T13:27:21.046Z,19.80
2023-04-20T13:29:50.119Z,19.80
2023-04-20T13:32:18.732Z,19.80
2023-04-20T13:34:47.530Z,19.80
2023-04-20T13:37:15.981Z,19.80
2023-04-20T13:39:45.205Z,19.70
2023-04-20T13:42:13.698Z,19.80
2023-04-20T13:44:42.474Z,19.70
2023-04-20T13:47:10.929Z,19.80
2023-04-20T13:49:39.652Z,19.80
2023-04-20T13:52:08.153Z,19.80
2023-04-20T13:54:36.997Z,19.80
2023-04-20T13:57:05.558Z,19.80
2023-04-20T13:59:35.021Z,19.80
2023-04-20T14:02:03.748Z,19.80
2023-04-20T14:04:32.593Z,19.80
2023-04-20T14:07:01.149Z,19.80
2023-04-20T14:09:32.205Z,19.70
2023-04-20T14:12:01.792Z,19.70
2023-04-20T14:14:30.759Z,19.80
2023-04-20T14:16:59.198Z,19.80
2023-04-20T14:19:28.060Z,19.80
2023-04-20T14:21:56.500Z,19.70
2023-04-20T14:24:25.276Z,19.70
2023-04-20T14:26:54.426Z,19.70
2023-04-20T14:29:23.322Z,19.70
2023-04-20T14:31:51.829Z,19.70
2023-04-20T14:34:20.971Z,19.70
2023-04-20T14:36:49.406Z,19.70
2023-04-20T14:39:21.196Z,19.70
2023-04-20T14:41:49.872Z,19.70
2023-04-20T14:44:18.983Z,19.70
2023-04-20T14:46:47.715Z,19.70
2023-04-20T14:49:16.687Z,19.70
2023-04-20T14:51:45.154Z,19.70
2023-04-20T14:54:13.992Z,19.70
2023-04-20T14:56:42.473Z,19.70
2023-04-20T14:59:11.335Z,19.70
2023-04-20T15:01:43.387Z,19.70
2023-04-20T15:04:20.800Z,19.80
2023-04-20T15:06:49.499Z,19.70
2023-04-20T15:09:18.253Z,19.70
2023-04-20T15:11:46.682Z,19.70
2023-04-20T15:14:15.689Z,19.70
2023-04-20T15:16:44.459Z,19.70
2023-04-20T15:19:13.257Z,19.70
2023-04-20T15:21:42.765Z,19.70
2023-04-20T15:24:12.966Z,19.70
2023-04-20T15:26:41.987Z,19.70
2023-04-20T15:29:10.801Z,19.70
2023-04-20T15:31:40.651Z,19.70
2023-04-20T15:34:11.418Z,19.70
2023-04-20T15:36:39.996Z,19.70
2023-04-20T15:39:08.842Z,19.60
2023-04-20T15:41:37.514Z,19.60
2023-04-20T15:44:06.918Z,19.60
2023-04-20T15:46:37.064Z,19.60
2023-04-20T15:49:06.084Z,19.60
2023-04-20T15:51:34.593Z,19.60
2023-04-20T15:54:03.614Z,19.60
2023-04-20T15:56:32.287Z,19.60
2023-04-20T15:59:01.219Z,19.60
2023-04-20T16:01:29.797Z,19.60
2023-04-20T16:03:59.551Z,19.60
2023-04-20T16:06:28.303Z,19.60
2023-04-20T16:08:57.896Z,19.60
2023-04-20T16:11:26.616Z,19.60
2023-04-20T16:13:56.862Z,19.50
2023-04-20T16:16:25.884Z,19.60
2023-04-20T16:18:55.486Z,19.60
2023-04-20T16:21:24.057Z,19.60
2023-04-20T16:23:59.302Z,19.60
2023-04-20T16:26:27.904Z,19.50
2023-04-20T16:28:57.279Z,19.60
2023-04-20T16:31:27.233Z,19.60
2023-04-20T16:33:57.592Z,19.50
2023-04-20T16:36:27.293Z,19.50
2023-04-20T16:38:57.416Z,19.50
2023-04-20T16:41:27.328Z,19.50
2023-04-20T16:43:56.215Z,19.50
2023-04-20T16:46:24.890Z,19.50
2023-04-20T16:48:54.923Z,19.50
2023-04-20T16:51:23.530Z,19.50
2023-04-20T16:53:52.943Z,19.50
2023-04-20T16:56:21.597Z,19.50
2023-04-20T16:58:50.556Z,19.50
2023-04-20T17:01:19.342Z,19.50
2023-04-20T17:03:48.546Z,19.50
2023-04-20T17:06:17.335Z,19.50
2023-04-20T17:08:47.456Z,19.50
2023-04-20T17:11:16.986Z,19.40
2023-04-20T17:13:45.954Z,19.40
2023-04-20T17:16:14.629Z,19.50
2023-04-20T17:18:43.571Z,19.50
2023-04-20T17:21:12.186Z,19.50
2023-04-20T17:23:41.362Z,19.50
2023-04-20T17:26:09.955Z,19.50
2023-04-20T17:28:38.835Z,19.40
2023-04-20T17:31:07.437Z,19.40
2023-04-20T17:33:36.398Z,19.40
2023-04-20T17:36:05.228Z,19.40
2023-04-20T17:38:36.867Z,19.40
2023-04-20T17:41:05.671Z,19.40
2023-04-20T17:43:36.420Z,19.40
2023-04-20T17:46:05.094Z,19.40
2023-04-20T17:48:34.112Z,19.40
2023-04-20T17:51:02.740Z,19.40
2023-04-20T17:53:31.778Z,19.40
2023-04-20T17:56:00.406Z,19.40
2023-04-20T17:58:29.254Z,19.40
2023-04-20T18:00:57.832Z,19.40
2023-04-20T18:03:27.083Z,19.40
2023-04-20T18:05:55.797Z,19.40
2023-04-20T18:08:24.806Z,19.40
2023-04-20T18:10:53.394Z,19.40
2023-04-20T18:13:22.294Z,19.40
2023-04-20T18:15:50.987Z,19.40
2023-04-20T18:18:21.925Z,19.40
2023-04-20T18:20:51.045Z,19.40
2023-04-20T18:23:20.488Z,19.40
2023-04-20T18:25:49.423Z,19.40
2023-04-20T18:28:18.329Z,19.40
2023-04-20T18:30:46.881Z,19.40
2023-04-20T18:33:15.874Z,19.40
2023-04-20T18:35:45.440Z,19.40
2023-04-20T18:38:14.614Z,19.40
2023-04-20T18:40:43.127Z,19.40
2023-04-20T18:43:12.267Z,19.40
2023-04-20T18:45:41.116Z,19.40
2023-04-20T18:48:10.190Z,19.40
2023-04-20T18:50:38.684Z,19.40
2023-04-20T18:53:07.961Z,19.40
2023-04-20T18:55:37.936Z,19.40
2023-04-20T18:58:06.906Z,19.40
2023-04-20T19:00:35.531Z,19.40
2023-04-20T19:03:05.943Z,19.40
2023-04-20T19:05:34.949Z,19.40
2023-04-20T19:08:04.059Z,19.40
2023-04-20T19:10:32.635Z,19.30
2023-04-20T19:13:01.885Z,19.30
2023-04-20T19:15:30.547Z,19.30
2023-04-20T19:17:59.484Z,19.30
2023-04-20T19:20:28.027Z,19.30
2023-04-20T19:22:56.945Z,19.30
2023-04-20T19:25:25.807Z,19.30
2023-04-20T19:27:55.057Z,19.30
2023-04-20T19:30:23.726Z,19.30
2023-04-20T19:32:52.715Z,19.30
2023-04-20T19:35:21.383Z,19.30
2023-04-20T19:37:50.083Z,19.30
2023-04-20T19:40:21.888Z,19.30
2023-04-20T19:42:51.045Z,19.30
2023-04-20T19:45:19.597Z,19.40
2023-04-20T19:47:48.399Z,19.40
2023-04-20T19:50:17.110Z,19.30
2023-04-20T19:52:45.997Z,19.30
2023-04-20T19:55:15.512Z,19.30
2023-04-20T19:57:44.341Z,19.30
2023-04-20T20:00:13.615Z,19.30
2023-04-20T20:02:44.156Z,19.30
2023-04-20T20:05:12.689Z,19.30
2023-04-20T20:07:41.407Z,19.30
2023-04-20T20:10:09.850Z,19.30
2023-04-20T20:12:39.748Z,19.30
2023-04-20T20:15:08.650Z,19.30
2023-04-20T20:17:37.438Z,19.30
2023-04-20T20:20:06.824Z,19.30
2023-04-20T20:22:35.727Z,19.30
2023-04-20T20:25:04.349Z,19.30
2023-04-20T20:27:33.078Z,19.30
2023-04-20T20:30:01.475Z,19.30
2023-04-20T20:32:31.471Z,19.30
2023-04-20T20:35:01.002Z,19.30
2023-04-20T20:37:34.887Z,19.30
2023-04-20T20:40:06.176Z,19.30
2023-04-20T20:42:35.079Z,19.30
2023-04-20T20:45:04.244Z,19.30
2023-04-20T20:47:34.347Z,19.30
2023-04-20T20:50:02.730Z,19.30
2023-04-20T20:52:31.519Z,19.30
2023-04-20T20:55:00.034Z,19.40
2023-04-20T20:57:28.772Z,19.40
2023-04-20T20:59:57.240Z,19.40
2023-04-20T21:02:26.245Z,19.30
2023-04-20T21:04:54.882Z,19.40
2023-04-20T21:07:23.846Z,19.40
2023-04-20T21:09:52.258Z,19.40
2023-04-20T21:12:21.217Z,19.40
2023-04-20T21:14:51.554Z,19.40
2023-04-20T21:17:20.602Z,19.40
2023-04-20T21:19:49.001Z,19.40
2023-04-20T21:22:17.787Z,19.40
2023-04-20T21:24:46.196Z,19.30
2023-04-20T21:27:14.916Z,19.30
2023-04-20T21:29:43.369Z,19.30
2023-04-20T21:32:12.338Z,19.30
2023-04-20T21:34:40.878Z,19.30
2023-04-20T21:37:09.600Z,19.30
2023-04-20T21:39:38.030Z,19.30
2023-04-20T21:42:08.832Z,19.30
2023-04-20T21:44:38.211Z,19.30
2023-04-20T21:47:07.046Z,19.30
2023-04-20T21:49:35.448Z,19.20
2023-04-20T21:52:04.411Z,19.20
2023-04-20T21:54:34.605Z,19.30
2023-04-20T21:57:03.912Z,19.20
2023-04-20T21:59:32.374Z,19.20
2023-04-20T22:02:01.289Z,19.20
2023-04-20T22:04:29.944Z,19.20
2023-04-20T22:06:58.886Z,19.20
2023-04-20T22:09:27.390Z,19.20
2023-04-20T22:11:57.868Z,19.20
2023-04-20T22:14:26.528Z,19.20
2023-04-20T22:16:55.306Z,19.20
2023-04-20T22:19:23.779Z,19.20
2023-04-20T22:21:52.666Z,19.20
2023-04-20T22:24:21.167Z,19.20
2023-04-20T22:26:50.282Z,19.20
2023-04-20T22:29:18.986Z,19.20
2023-04-20T22:31:48.476Z,19.20
2023-04-20T22:34:17.036Z,19.20
2023-04-20T22:36:46.316Z,19.20
2023-04-20T22:39:15.008Z,19.20
2023-04-20T22:41:43.828Z,19.20
2023-04-20T22:44:12.337Z,19.10
2023-04-20T22:46:41.153Z,19.10
2023-04-20T22:49:09.682Z,19.10
2023-04-20T22:51:38.469Z,19.10
2023-04-20T22:54:06.997Z,19.10
2023-04-20T22:56:36.401Z,19.10
2023-04-20T22:59:04.856Z,19.10
2023-04-20T23:01:33.692Z,19.10
2023-04-20T23:04:02.359Z,19.10
2023-04-20T23:06:31.828Z,19.10
2023-04-20T23:09:00.812Z,19.10
2023-04-20T23:11:30.099Z,19.10
2023-04-20T23:13:58.634Z,19.10
2023-04-20T23:16:28.552Z,19.10
2023-04-20T23:18:57.065Z,19.10
2023-04-20T23:21:27.718Z,19.10
2023-04-20T23:23:58.060Z,19.10
2023-04-20T23:26:26.968Z,19.10
2023-04-20T23:28:55.524Z,19.10
2023-04-20T23:31:24.916Z,19.10
2023-04-20T23:33:53.605Z,19.10
2023-04-20T23:36:22.472Z,19.10
2023-04-20T23:38:51.037Z,19.10
2023-04-20T23:41:19.953Z,19.10
2023-04-20T23:43:48.404Z,19.10
2023-04-20T23:46:18.683Z,19.10
2023-04-20T23:48:47.268Z,19.00
2023-04-20T23:51:16.236Z,19.10
2023-04-20T23:53:44.746Z,19.10
2023-04-20T23:56:13.955Z,19.00
2023-04-20T23:58:42.437Z,19.00
